sensor_id;sensor_type;location;lat;lon;timestamp;pressure;altitude;pressure_sealevel;temperature;humidity
35716;BME280;21840;44.920;8.616;2023-01-04T00:01:05;101882.72;;;16.27;56.79
35716;BME280;21840;44.920;8.616;2023-01-04T00:03:31;101876.44;;;16.18;56.79
35716;BME280;21840;44.920;8.616;2023-01-04T00:05:59;101879.28;;;15.96;57.64
35716;BME280;21840;44.920;8.616;2023-01-04T00:08:25;101883.75;;;15.74;58.54
35716;BME280;21840;44.920;8.616;2023-01-04T00:10:50;101873.97;;;15.96;57.93
35716;BME280;21840;44.920;8.616;2023-01-04T00:13:16;101882.72;;;15.66;58.15
35716;BME280;21840;44.920;8.616;2023-01-04T00:15:41;101879.41;;;15.31;59.38
35716;BME280;21840;44.920;8.616;2023-01-04T00:18:07;101871.38;;;15.75;58.40
35716;BME280;21840;44.920;8.616;2023-01-04T00:20:32;101868.75;;;16.15;57.32
35716;BME280;21840;44.920;8.616;2023-01-04T00:22:58;101873.84;;;15.98;57.84
35716;BME280;21840;44.920;8.616;2023-01-04T00:25:24;101874.31;;;15.82;58.21
35716;BME280;21840;44.920;8.616;2023-01-04T00:27:50;101871.75;;;16.01;57.78
35716;BME280;21840;44.920;8.616;2023-01-04T00:30:16;101867.66;;;15.87;57.97
35716;BME280;21840;44.920;8.616;2023-01-04T00:32:42;101864.41;;;16.14;57.39
35716;BME280;21840;44.920;8.616;2023-01-04T00:35:08;101867.50;;;16.20;57.10
35716;BME280;21840;44.920;8.616;2023-01-04T00:37:34;101864.81;;;15.79;58.02
35716;BME280;21840;44.920;8.616;2023-01-04T00:39:59;101873.06;;;15.65;58.42
35716;BME280;21840;44.920;8.616;2023-01-04T00:42:25;101867.75;;;15.76;58.21
35716;BME280;21840;44.920;8.616;2023-01-04T00:44:50;101864.78;;;15.48;59.01
35716;BME280;21840;44.920;8.616;2023-01-04T00:47:16;101856.06;;;15.16;60.13
35716;BME280;21840;44.920;8.616;2023-01-04T00:49:41;101857.38;;;15.10;59.97
35716;BME280;21840;44.920;8.616;2023-01-04T00:52:07;101857.94;;;15.46;58.97
35716;BME280;21840;44.920;8.616;2023-01-04T00:54:32;101856.81;;;15.90;57.87
35716;BME280;21840;44.920;8.616;2023-01-04T00:56:58;101854.34;;;16.08;57.41
35716;BME280;21840;44.920;8.616;2023-01-04T00:59:25;101849.47;;;16.04;57.36
35716;BME280;21840;44.920;8.616;2023-01-04T01:01:51;101853.25;;;16.11;57.09
35716;BME280;21840;44.920;8.616;2023-01-04T01:04:19;101858.69;;;15.79;57.76
35716;BME280;21840;44.920;8.616;2023-01-04T01:06:45;101864.25;;;15.76;58.09
35716;BME280;21840;44.920;8.616;2023-01-04T01:09:10;101849.84;;;15.99;57.29
35716;BME280;21840;44.920;8.616;2023-01-04T01:11:37;101854.94;;;16.22;57.16
35716;BME280;21840;44.920;8.616;2023-01-04T01:14:04;101853.22;;;16.01;57.34
35716;BME280;21840;44.920;8.616;2023-01-04T01:16:30;101857.19;;;15.65;58.21
35716;BME280;21840;44.920;8.616;2023-01-04T01:18:55;101857.91;;;15.88;58.02
35716;BME280;21840;44.920;8.616;2023-01-04T01:21:23;101860.50;;;15.57;58.61
35716;BME280;21840;44.920;8.616;2023-01-04T01:23:50;101860.13;;;15.83;58.36
35716;BME280;21840;44.920;8.616;2023-01-04T01:26:18;101864.25;;;15.76;58.21
35716;BME280;21840;44.920;8.616;2023-01-04T01:28:45;101862.56;;;15.74;57.89
35716;BME280;21840;44.920;8.616;2023-01-04T01:31:19;101867.97;;;15.94;57.84
35716;BME280;21840;44.920;8.616;2023-01-04T01:33:47;101862.44;;;16.07;57.11
35716;BME280;21840;44.920;8.616;2023-01-04T01:36:15;101861.59;;;16.06;57.06
35716;BME280;21840;44.920;8.616;2023-01-04T01:38:41;101868.09;;;15.92;57.68
35716;BME280;21840;44.920;8.616;2023-01-04T01:41:15;101870.06;;;15.69;58.09
35716;BME280;21840;44.920;8.616;2023-01-04T01:44:05;101869.41;;;15.56;58.46
35716;BME280;21840;44.920;8.616;2023-01-04T01:46:42;101873.38;;;15.41;58.63
35716;BME280;21840;44.920;8.616;2023-01-04T01:49:32;101872.13;;;15.24;59.28
35716;BME280;21840;44.920;8.616;2023-01-04T01:52:00;101875.75;;;15.23;59.36
35716;BME280;21840;44.920;8.616;2023-01-04T01:54:34;101880.41;;;15.30;59.31
35716;BME280;21840;44.920;8.616;2023-01-04T01:57:03;101888.56;;;15.27;59.14
35716;BME280;21840;44.920;8.616;2023-01-04T01:59:31;101887.97;;;15.35;58.93
35716;BME280;21840;44.920;8.616;2023-01-04T02:01:58;101884.03;;;15.71;58.35
35716;BME280;21840;44.920;8.616;2023-01-04T02:04:23;101885.78;;;15.92;57.41
35716;BME280;21840;44.920;8.616;2023-01-04T02:06:54;101884.91;;;15.82;57.34
35716;BME280;21840;44.920;8.616;2023-01-04T02:09:21;101889.38;;;15.81;57.77
35716;BME280;21840;44.920;8.616;2023-01-04T02:11:47;101883.63;;;15.55;58.13
35716;BME280;21840;44.920;8.616;2023-01-04T02:14:14;101889.22;;;15.20;59.51
35716;BME280;21840;44.920;8.616;2023-01-04T02:17:47;101888.88;;;15.45;58.61
35716;BME280;21840;44.920;8.616;2023-01-04T02:33:40;101885.00;;;15.70;58.13
35716;BME280;21840;44.920;8.616;2023-01-04T02:41:34;101873.75;;;15.78;57.85
35716;BME280;21840;44.920;8.616;2023-01-04T02:47:00;101877.06;;;14.96;60.13
35716;BME280;21840;44.920;8.616;2023-01-04T02:49:28;101876.81;;;14.99;59.96
35716;BME280;21840;44.920;8.616;2023-01-04T02:52:13;101870.44;;;15.65;58.38
35716;BME280;21840;44.920;8.616;2023-01-04T02:54:39;101869.34;;;15.46;58.37
35716;BME280;21840;44.920;8.616;2023-01-04T02:57:27;101868.75;;;15.01;60.01
35716;BME280;21840;44.920;8.616;2023-01-04T03:00:05;101864.50;;;15.09;59.83
35716;BME280;21840;44.920;8.616;2023-01-04T03:08:46;101851.41;;;15.71;58.52
35716;BME280;21840;44.920;8.616;2023-01-04T03:11:14;101859.00;;;15.64;58.51
35716;BME280;21840;44.920;8.616;2023-01-04T03:16:31;101858.31;;;15.20;59.93
35716;BME280;21840;44.920;8.616;2023-01-04T03:18:59;101850.75;;;15.58;58.75
35716;BME280;21840;44.920;8.616;2023-01-04T03:21:34;101847.66;;;15.52;59.07
35716;BME280;21840;44.920;8.616;2023-01-04T03:24:02;101845.34;;;15.38;59.08
35716;BME280;21840;44.920;8.616;2023-01-04T03:26:50;101850.53;;;15.07;59.71
35716;BME280;21840;44.920;8.616;2023-01-04T03:30:26;101857.97;;;15.35;59.70
35716;BME280;21840;44.920;8.616;2023-01-04T03:32:49;101858.72;;;15.67;58.56
35716;BME280;21840;44.920;8.616;2023-01-04T03:35:44;101858.41;;;15.82;58.18
35716;BME280;21840;44.920;8.616;2023-01-04T03:38:17;101857.28;;;15.74;58.48
35716;BME280;21840;44.920;8.616;2023-01-04T03:41:16;101860.19;;;15.50;59.10
35716;BME280;21840;44.920;8.616;2023-01-04T03:44:12;101859.00;;;15.64;58.53
35716;BME280;21840;44.920;8.616;2023-01-04T03:47:12;101862.44;;;15.76;58.33
35716;BME280;21840;44.920;8.616;2023-01-04T03:50:11;101857.88;;;15.78;58.13
35716;BME280;21840;44.920;8.616;2023-01-04T03:52:39;101853.69;;;15.64;58.87
35716;BME280;21840;44.920;8.616;2023-01-04T03:55:07;101852.38;;;15.28;59.81
35716;BME280;21840;44.920;8.616;2023-01-04T03:57:33;101847.25;;;14.94;60.73
35716;BME280;21840;44.920;8.616;2023-01-04T04:00:05;101850.31;;;15.31;60.09
35716;BME280;21840;44.920;8.616;2023-01-04T04:02:34;101853.13;;;15.40;59.92
35716;BME280;21840;44.920;8.616;2023-01-04T04:04:59;101835.56;;;15.60;59.03
35716;BME280;21840;44.920;8.616;2023-01-04T04:07:44;101837.91;;;15.11;60.27
35716;BME280;21840;44.920;8.616;2023-01-04T04:10:28;101831.97;;;14.98;60.62
35716;BME280;21840;44.920;8.616;2023-01-04T04:12:53;101828.19;;;15.32;59.94
35716;BME280;21840;44.920;8.616;2023-01-04T04:15:18;101830.81;;;15.12;60.59
35716;BME280;21840;44.920;8.616;2023-01-04T04:17:44;101828.47;;;15.60;59.59
35716;BME280;21840;44.920;8.616;2023-01-04T04:20:10;101830.34;;;15.27;60.54
35716;BME280;21840;44.920;8.616;2023-01-04T04:22:37;101834.81;;;15.27;60.24
35716;BME280;21840;44.920;8.616;2023-01-04T04:25:03;101835.03;;;15.35;59.89
35716;BME280;21840;44.920;8.616;2023-01-04T04:27:28;101827.38;;;15.00;60.52
35716;BME280;21840;44.920;8.616;2023-01-04T04:29:54;101836.81;;;14.93;60.86
35716;BME280;21840;44.920;8.616;2023-01-04T04:32:19;101839.44;;;14.93;60.65
35716;BME280;21840;44.920;8.616;2023-01-04T04:34:45;101838.84;;;14.89;61.25
35716;BME280;21840;44.920;8.616;2023-01-04T04:37:11;101839.34;;;15.36;59.86
35716;BME280;21840;44.920;8.616;2023-01-04T04:39:36;101833.44;;;15.53;59.17
35716;BME280;21840;44.920;8.616;2023-01-04T04:42:02;101835.91;;;15.24;59.94
35716;BME280;21840;44.920;8.616;2023-01-04T04:44:27;101834.06;;;15.15;59.78
35716;BME280;21840;44.920;8.616;2023-01-04T04:46:52;101836.44;;;15.18;60.13
35716;BME280;21840;44.920;8.616;2023-01-04T04:49:18;101841.28;;;15.13;60.15
35716;BME280;21840;44.920;8.616;2023-01-04T04:51:44;101840.16;;;15.37;59.63
35716;BME280;21840;44.920;8.616;2023-01-04T04:54:14;101843.91;;;15.34;59.64
35716;BME280;21840;44.920;8.616;2023-01-04T04:56:40;101840.41;;;15.54;59.25
35716;BME280;21840;44.920;8.616;2023-01-04T04:59:06;101847.53;;;15.12;59.92
35716;BME280;21840;44.920;8.616;2023-01-04T05:01:31;101852.34;;;14.86;60.67
35716;BME280;21840;44.920;8.616;2023-01-04T05:03:57;101849.44;;;14.89;60.63
35716;BME280;21840;44.920;8.616;2023-01-04T05:06:23;101852.50;;;15.05;60.38
35716;BME280;21840;44.920;8.616;2023-01-04T05:08:48;101848.50;;;15.11;60.13
35716;BME280;21840;44.920;8.616;2023-01-04T05:11:14;101847.53;;;15.54;59.19
35716;BME280;21840;44.920;8.616;2023-01-04T05:13:40;101853.69;;;15.64;58.38
35716;BME280;21840;44.920;8.616;2023-01-04T05:16:07;101852.75;;;15.44;59.25
35716;BME280;21840;44.920;8.616;2023-01-04T05:18:33;101854.19;;;15.48;59.00
35716;BME280;21840;44.920;8.616;2023-01-04T05:20:59;101854.34;;;15.57;58.70
35716;BME280;21840;44.920;8.616;2023-01-04T05:23:26;101855.16;;;15.05;59.89
35716;BME280;21840;44.920;8.616;2023-01-04T05:25:56;101855.34;;;15.35;59.40
35716;BME280;21840;44.920;8.616;2023-01-04T05:28:23;101858.09;;;14.91;60.40
35716;BME280;21840;44.920;8.616;2023-01-04T05:30:49;101857.94;;;15.46;59.01
35716;BME280;21840;44.920;8.616;2023-01-04T05:33:29;101856.69;;;15.08;59.97
35716;BME280;21840;44.920;8.616;2023-01-04T05:35:57;101854.22;;;14.95;60.29
35716;BME280;21840;44.920;8.616;2023-01-04T05:38:23;101855.16;;;15.05;60.03
35716;BME280;21840;44.920;8.616;2023-01-04T05:40:49;101860.31;;;15.28;59.31
35716;BME280;21840;44.920;8.616;2023-01-04T05:43:16;101859.47;;;15.69;58.50
35716;BME280;21840;44.920;8.616;2023-01-04T05:45:43;101861.59;;;15.34;58.81
35716;BME280;21840;44.920;8.616;2023-01-04T05:48:09;101859.88;;;15.44;59.07
35716;BME280;21840;44.920;8.616;2023-01-04T05:50:35;101866.56;;;15.27;58.90
35716;BME280;21840;44.920;8.616;2023-01-04T05:53:03;101865.25;;;15.32;59.30
35716;BME280;21840;44.920;8.616;2023-01-04T05:55:29;101873.38;;;15.41;59.16
35716;BME280;21840;44.920;8.616;2023-01-04T05:57:55;101868.13;;;15.29;59.54
35716;BME280;21840;44.920;8.616;2023-01-04T06:00:20;101869.97;;;15.60;58.60
35716;BME280;21840;44.920;8.616;2023-01-04T06:02:46;101870.25;;;15.36;59.41
35716;BME280;21840;44.920;8.616;2023-01-04T06:05:12;101872.75;;;15.37;58.96
35716;BME280;21840;44.920;8.616;2023-01-04T06:07:38;101864.44;;;15.42;59.10
35716;BME280;21840;44.920;8.616;2023-01-04T06:10:08;101871.84;;;15.06;59.69
35716;BME280;21840;44.920;8.616;2023-01-04T06:12:34;101877.00;;;15.07;60.01
35716;BME280;21840;44.920;8.616;2023-01-04T06:15:00;101880.91;;;15.24;59.68
35716;BME280;21840;44.920;8.616;2023-01-04T06:17:26;101883.03;;;15.30;59.23
35716;BME280;21840;44.920;8.616;2023-01-04T06:19:51;101877.25;;;15.58;58.73
35716;BME280;21840;44.920;8.616;2023-01-04T06:22:18;101877.69;;;15.42;58.76
35716;BME280;21840;44.920;8.616;2023-01-04T06:24:43;101882.25;;;15.40;59.10
35716;BME280;21840;44.920;8.616;2023-01-04T06:27:09;101886.38;;;15.12;59.70
35716;BME280;21840;44.920;8.616;2023-01-04T06:29:34;101887.59;;;15.07;59.87
35716;BME280;21840;44.920;8.616;2023-01-04T06:32:00;101877.25;;;15.58;58.85
35716;BME280;21840;44.920;8.616;2023-01-04T06:34:25;101878.19;;;15.57;58.46
35716;BME280;21840;44.920;8.616;2023-01-04T06:36:51;101892.59;;;15.64;58.27
35716;BME280;21840;44.920;8.616;2023-01-04T06:39:17;101891.44;;;15.57;58.55
35716;BME280;21840;44.920;8.616;2023-01-04T06:41:42;101900.28;;;15.46;58.56
35716;BME280;21840;44.920;8.616;2023-01-04T06:44:08;101893.25;;;15.56;58.63
35716;BME280;21840;44.920;8.616;2023-01-04T06:46:34;101889.91;;;15.33;59.02
35716;BME280;21840;44.920;8.616;2023-01-04T06:48:59;101887.81;;;15.16;59.14
35716;BME280;21840;44.920;8.616;2023-01-04T06:51:25;101885.25;;;15.46;58.61
35716;BME280;21840;44.920;8.616;2023-01-04T06:53:50;101880.13;;;15.54;58.47
35716;BME280;21840;44.920;8.616;2023-01-04T06:56:16;101887.22;;;15.54;58.30
35716;BME280;21840;44.920;8.616;2023-01-04T06:58:41;101878.41;;;15.23;59.19
35716;BME280;21840;44.920;8.616;2023-01-04T07:01:07;101881.69;;;15.15;59.29
35716;BME280;21840;44.920;8.616;2023-01-04T07:03:32;101888.38;;;15.19;59.49
35716;BME280;21840;44.920;8.616;2023-01-04T07:05:58;101887.03;;;15.25;59.01
35716;BME280;21840;44.920;8.616;2023-01-04T07:08:24;101890.75;;;15.01;59.59
35716;BME280;21840;44.920;8.616;2023-01-04T07:10:50;101891.75;;;15.21;59.35
35716;BME280;21840;44.920;8.616;2023-01-04T07:13:16;101894.09;;;15.36;58.71
35716;BME280;21840;44.920;8.616;2023-01-04T07:15:41;101902.94;;;15.46;58.68
35716;BME280;21840;44.920;8.616;2023-01-04T07:18:08;101903.94;;;15.54;58.77
35716;BME280;21840;44.920;8.616;2023-01-04T07:20:35;101902.19;;;15.65;58.17
35716;BME280;21840;44.920;8.616;2023-01-04T07:23:01;101896.16;;;15.53;58.35
35716;BME280;21840;44.920;8.616;2023-01-04T07:25:27;101905.31;;;15.49;58.27
35716;BME280;21840;44.920;8.616;2023-01-04T07:27:53;101906.47;;;15.56;58.26
35716;BME280;21840;44.920;8.616;2023-01-04T07:30:21;101913.38;;;15.26;59.11
35716;BME280;21840;44.920;8.616;2023-01-04T07:32:47;101925.91;;;15.66;58.21
35716;BME280;21840;44.920;8.616;2023-01-04T07:35:13;101924.69;;;15.91;57.52
35716;BME280;21840;44.920;8.616;2023-01-04T07:37:38;101926.06;;;15.86;57.52
35716;BME280;21840;44.920;8.616;2023-01-04T07:40:04;101933.94;;;15.97;57.16
35716;BME280;21840;44.920;8.616;2023-01-04T07:42:30;101922.53;;;16.06;56.91
35716;BME280;21840;44.920;8.616;2023-01-04T07:44:56;101928.53;;;15.78;57.16
35716;BME280;21840;44.920;8.616;2023-01-04T07:47:21;101928.63;;;15.97;57.12
35716;BME280;21840;44.920;8.616;2023-01-04T07:49:47;101934.72;;;15.88;57.39
35716;BME280;21840;44.920;8.616;2023-01-04T07:52:14;101929.66;;;16.06;56.88
35716;BME280;21840;44.920;8.616;2023-01-04T07:54:40;101932.00;;;15.99;56.90
35716;BME280;21840;44.920;8.616;2023-01-04T07:57:06;101936.56;;;15.34;58.41
35716;BME280;21840;44.920;8.616;2023-01-04T07:59:31;101939.53;;;15.73;58.09
35716;BME280;21840;44.920;8.616;2023-01-04T08:01:57;101949.47;;;15.81;57.77
35716;BME280;21840;44.920;8.616;2023-01-04T08:04:23;101950.75;;;15.86;57.62
35716;BME280;21840;44.920;8.616;2023-01-04T08:06:49;101943.88;;;16.05;57.12
35716;BME280;21840;44.920;8.616;2023-01-04T08:09:15;101942.47;;;16.01;56.94
35716;BME280;21840;44.920;8.616;2023-01-04T08:11:42;101943.22;;;16.12;56.80
35716;BME280;21840;44.920;8.616;2023-01-04T08:14:09;101948.59;;;16.01;57.52
35716;BME280;21840;44.920;8.616;2023-01-04T08:16:37;101952.13;;;16.11;57.19
35716;BME280;21840;44.920;8.616;2023-01-04T08:19:07;101952.41;;;16.08;57.31
35716;BME280;21840;44.920;8.616;2023-01-04T08:21:35;101959.00;;;15.72;57.94
35716;BME280;21840;44.920;8.616;2023-01-04T08:24:02;101967.34;;;15.88;57.71
35716;BME280;21840;44.920;8.616;2023-01-04T08:26:27;101957.97;;;16.05;57.32
35716;BME280;21840;44.920;8.616;2023-01-04T08:28:53;101962.19;;;15.34;59.02
35716;BME280;21840;44.920;8.616;2023-01-04T08:31:21;101966.16;;;15.60;58.62
35716;BME280;21840;44.920;8.616;2023-01-04T08:33:47;101964.75;;;15.56;58.86
35716;BME280;21840;44.920;8.616;2023-01-04T08:36:24;101966.13;;;15.39;59.27
35716;BME280;21840;44.920;8.616;2023-01-04T08:38:52;101963.03;;;15.34;59.35
35716;BME280;21840;44.920;8.616;2023-01-04T08:41:18;101971.78;;;15.67;58.81
35716;BME280;21840;44.920;8.616;2023-01-04T08:43:44;101967.75;;;15.51;58.74
35716;BME280;21840;44.920;8.616;2023-01-04T08:46:10;101970.66;;;15.81;58.41
35716;BME280;21840;44.920;8.616;2023-01-04T08:48:37;101982.41;;;15.88;58.52
35716;BME280;21840;44.920;8.616;2023-01-04T08:51:06;101980.13;;;16.04;57.60
35716;BME280;21840;44.920;8.616;2023-01-04T08:53:32;101976.88;;;16.22;57.28
35716;BME280;21840;44.920;8.616;2023-01-04T08:55:58;101978.44;;;16.24;57.40
35716;BME280;21840;44.920;8.616;2023-01-04T08:58:26;101976.09;;;16.31;57.04
35716;BME280;21840;44.920;8.616;2023-01-04T09:00:52;101981.44;;;15.89;57.91
35716;BME280;21840;44.920;8.616;2023-01-04T09:03:18;101975.34;;;15.77;58.39
35716;BME280;21840;44.920;8.616;2023-01-04T09:05:44;101979.50;;;15.91;58.21
35716;BME280;21840;44.920;8.616;2023-01-04T09:08:10;101977.22;;;16.07;57.78
35716;BME280;21840;44.920;8.616;2023-01-04T09:10:37;101983.78;;;16.34;57.67
35716;BME280;21840;44.920;8.616;2023-01-04T09:13:03;101978.34;;;16.35;56.83
35716;BME280;21840;44.920;8.616;2023-01-04T09:15:29;101982.88;;;16.54;56.68
35716;BME280;21840;44.920;8.616;2023-01-04T09:17:55;101983.94;;;16.73;56.42
35716;BME280;21840;44.920;8.616;2023-01-04T09:20:20;101990.47;;;16.69;56.35
35716;BME280;21840;44.920;8.616;2023-01-04T09:22:46;101993.44;;;16.14;57.45
35716;BME280;21840;44.920;8.616;2023-01-04T09:25:12;101991.84;;;16.63;56.76
35716;BME280;21840;44.920;8.616;2023-01-04T09:27:38;101981.34;;;16.83;55.99
35716;BME280;21840;44.920;8.616;2023-01-04T09:30:05;101982.44;;;16.80;55.60
35716;BME280;21840;44.920;8.616;2023-01-04T09:32:30;101992.13;;;16.70;56.00
35716;BME280;21840;44.920;8.616;2023-01-04T09:34:56;101988.66;;;16.69;55.92
35716;BME280;21840;44.920;8.616;2023-01-04T09:37:21;101981.75;;;16.57;56.21
35716;BME280;21840;44.920;8.616;2023-01-04T09:39:47;101984.59;;;17.06;55.51
35716;BME280;21840;44.920;8.616;2023-01-04T09:44:47;101967.38;;;16.80;55.65
35716;BME280;21840;44.920;8.616;2023-01-04T09:47:41;101976.63;;;17.15;54.89
35716;BME280;21840;44.920;8.616;2023-01-04T09:50:21;101975.53;;;17.18;54.69
35716;BME280;21840;44.920;8.616;2023-01-04T09:55:36;101966.28;;;17.51;53.65
35716;BME280;21840;44.920;8.616;2023-01-04T09:58:29;101969.38;;;17.46;53.50
35716;BME280;21840;44.920;8.616;2023-01-04T10:01:15;101975.38;;;17.58;53.66
35716;BME280;21840;44.920;8.616;2023-01-04T10:03:50;101977.91;;;17.40;53.96
35716;BME280;21840;44.920;8.616;2023-01-04T10:06:17;101970.34;;;17.45;53.00
35716;BME280;21840;44.920;8.616;2023-01-04T10:08:44;101971.72;;;17.69;52.52
35716;BME280;21840;44.920;8.616;2023-01-04T10:13:57;101971.44;;;17.72;52.42
35716;BME280;21840;44.920;8.616;2023-01-04T10:21:55;101963.91;;;17.19;53.87
35716;BME280;21840;44.920;8.616;2023-01-04T10:27:37;101946.16;;;17.39;53.38
35716;BME280;21840;44.920;8.616;2023-01-04T10:33:32;101944.09;;;17.42;53.25
35716;BME280;21840;44.920;8.616;2023-01-04T10:36:16;101942.25;;;17.53;52.58
35716;BME280;21840;44.920;8.616;2023-01-04T10:38:42;101939.75;;;17.32;52.73
35716;BME280;21840;44.920;8.616;2023-01-04T10:41:12;101940.31;;;17.16;53.54
35716;BME280;21840;44.920;8.616;2023-01-04T10:51:53;101923.78;;;17.51;52.82
35716;BME280;21840;44.920;8.616;2023-01-04T11:05:21;101899.91;;;16.83;54.50
35716;BME280;21840;44.920;8.616;2023-01-04T11:07:59;101896.72;;;17.38;53.48
35716;BME280;21840;44.920;8.616;2023-01-04T11:10:29;101893.06;;;16.80;54.54
35716;BME280;21840;44.920;8.616;2023-01-04T11:12:56;101886.16;;;17.75;53.02
35716;BME280;21840;44.920;8.616;2023-01-04T11:15:21;101883.97;;;17.22;53.29
35716;BME280;21840;44.920;8.616;2023-01-04T11:17:48;101885.53;;;18.01;51.75
35716;BME280;21840;44.920;8.616;2023-01-04T11:20:14;101888.78;;;18.22;51.31
35716;BME280;21840;44.920;8.616;2023-01-04T11:22:51;101890.38;;;18.15;51.14
35716;BME280;21840;44.920;8.616;2023-01-04T11:25:20;101873.81;;;18.21;50.85
35716;BME280;21840;44.920;8.616;2023-01-04T11:27:58;101868.69;;;17.82;51.42
35716;BME280;21840;44.920;8.616;2023-01-04T11:30:37;101870.72;;;17.88;51.48
35716;BME280;21840;44.920;8.616;2023-01-04T11:33:20;101863.69;;;18.35;50.44
35716;BME280;21840;44.920;8.616;2023-01-04T11:35:49;101860.19;;;18.24;50.40
35716;BME280;21840;44.920;8.616;2023-01-04T11:38:20;101854.69;;;17.71;51.78
35716;BME280;21840;44.920;8.616;2023-01-04T11:41:04;101854.16;;;18.04;50.96
35716;BME280;21840;44.920;8.616;2023-01-04T11:43:35;101850.34;;;18.07;51.36
35716;BME280;21840;44.920;8.616;2023-01-04T11:48:42;101848.53;;;17.80;51.63
35716;BME280;21840;44.920;8.616;2023-01-04T11:51:34;101853.47;;;18.02;50.86
35716;BME280;21840;44.920;8.616;2023-01-04T11:56:34;101836.22;;;17.69;49.43
35716;BME280;21840;44.920;8.616;2023-01-04T12:04:40;101822.59;;;17.44;49.89
35716;BME280;21840;44.920;8.616;2023-01-04T12:07:13;101824.63;;;17.80;49.32
35716;BME280;21840;44.920;8.616;2023-01-04T12:09:42;101815.63;;;17.91;48.77
35716;BME280;21840;44.920;8.616;2023-01-04T12:12:10;101817.56;;;18.16;48.30
35716;BME280;21840;44.920;8.616;2023-01-04T12:14:39;101817.06;;;17.85;48.84
35716;BME280;21840;44.920;8.616;2023-01-04T12:17:24;101814.13;;;18.33;47.33
35716;BME280;21840;44.920;8.616;2023-01-04T12:19:52;101818.47;;;18.35;47.42
35716;BME280;21840;44.920;8.616;2023-01-04T12:22:21;101819.81;;;18.57;47.06
35716;BME280;21840;44.920;8.616;2023-01-04T12:24:48;101807.63;;;18.18;47.36
35716;BME280;21840;44.920;8.616;2023-01-04T12:27:15;101797.13;;;18.17;47.76
35716;BME280;21840;44.920;8.616;2023-01-04T12:34:40;101795.88;;;17.93;48.71
35716;BME280;21840;44.920;8.616;2023-01-04T12:37:06;101792.41;;;17.93;49.12
35716;BME280;21840;44.920;8.616;2023-01-04T12:39:43;101787.34;;;17.89;48.94
35716;BME280;21840;44.920;8.616;2023-01-04T12:42:18;101784.97;;;18.14;48.96
35716;BME280;21840;44.920;8.616;2023-01-04T12:52:41;101780.81;;;18.29;48.61
35716;BME280;21840;44.920;8.616;2023-01-04T12:58:03;101766.56;;;17.75;49.39
35716;BME280;21840;44.920;8.616;2023-01-04T13:05:55;101761.84;;;17.32;50.80
35716;BME280;21840;44.920;8.616;2023-01-04T13:08:24;101751.03;;;17.53;50.86
35716;BME280;21840;44.920;8.616;2023-01-04T13:10:52;101740.41;;;17.53;50.26
35716;BME280;21840;44.920;8.616;2023-01-04T13:13:25;101755.41;;;17.34;50.44
35716;BME280;21840;44.920;8.616;2023-01-04T13:18:34;101741.28;;;17.71;50.09
35716;BME280;21840;44.920;8.616;2023-01-04T13:21:07;101745.03;;;18.06;49.32
35716;BME280;21840;44.920;8.616;2023-01-04T13:23:35;101735.38;;;17.77;49.40
35716;BME280;21840;44.920;8.616;2023-01-04T13:29:06;101732.25;;;18.09;49.11
35716;BME280;21840;44.920;8.616;2023-01-04T13:34:18;101727.44;;;17.02;50.80
35716;BME280;21840;44.920;8.616;2023-01-04T13:36:52;101718.84;;;17.56;50.12
35716;BME280;21840;44.920;8.616;2023-01-04T13:39:18;101710.53;;;17.41;49.96
35716;BME280;21840;44.920;8.616;2023-01-04T13:41:44;101717.88;;;17.84;49.42
35716;BME280;21840;44.920;8.616;2023-01-04T13:44:20;101724.84;;;17.58;49.75
35716;BME280;21840;44.920;8.616;2023-01-04T13:46:50;101718.16;;;17.54;49.94
35716;BME280;21840;44.920;8.616;2023-01-04T13:49:18;101716.72;;;17.22;50.79
35716;BME280;21840;44.920;8.616;2023-01-04T13:51:44;101712.72;;;17.18;50.90
35716;BME280;21840;44.920;8.616;2023-01-04T13:54:20;101717.25;;;17.35;50.22
35716;BME280;21840;44.920;8.616;2023-01-04T13:56:47;101715.75;;;17.60;49.89
35716;BME280;21840;44.920;8.616;2023-01-04T13:59:15;101721.03;;;17.70;49.56
35716;BME280;21840;44.920;8.616;2023-01-04T14:01:41;101716.22;;;17.83;49.57
35716;BME280;21840;44.920;8.616;2023-01-04T14:04:27;101707.13;;;18.04;48.90
35716;BME280;21840;44.920;8.616;2023-01-04T14:06:55;101710.63;;;18.22;48.48
35716;BME280;21840;44.920;8.616;2023-01-04T14:09:26;101712.00;;;18.26;48.34
35716;BME280;21840;44.920;8.616;2023-01-04T14:12:06;101704.69;;;18.28;48.07
35716;BME280;21840;44.920;8.616;2023-01-04T14:20:30;101702.94;;;18.01;48.79
35716;BME280;21840;44.920;8.616;2023-01-04T14:22:57;101694.13;;;17.83;48.91
35716;BME280;21840;44.920;8.616;2023-01-04T14:33:40;101687.88;;;17.64;50.14
35716;BME280;21840;44.920;8.616;2023-01-04T14:41:28;101700.34;;;17.64;50.23
35716;BME280;21840;44.920;8.616;2023-01-04T14:46:23;101703.69;;;17.38;50.98
35716;BME280;21840;44.920;8.616;2023-01-04T14:48:49;101706.34;;;17.38;51.27
35716;BME280;21840;44.920;8.616;2023-01-04T14:51:18;101698.47;;;17.46;50.67
35716;BME280;21840;44.920;8.616;2023-01-04T14:53:44;101706.75;;;17.06;51.89
35716;BME280;21840;44.920;8.616;2023-01-04T14:56:15;101697.69;;;17.36;50.98
35716;BME280;21840;44.920;8.616;2023-01-04T14:58:41;101699.53;;;17.26;51.36
35716;BME280;21840;44.920;8.616;2023-01-04T15:01:08;101694.63;;;17.59;50.62
35716;BME280;21840;44.920;8.616;2023-01-04T15:03:34;101692.28;;;17.56;50.56
35716;BME280;21840;44.920;8.616;2023-01-04T15:05:59;101684.84;;;17.59;50.61
35716;BME280;21840;44.920;8.616;2023-01-04T15:08:25;101693.06;;;17.66;50.62
35716;BME280;21840;44.920;8.616;2023-01-04T15:10:50;101688.13;;;17.16;51.61
35716;BME280;21840;44.920;8.616;2023-01-04T15:13:16;101686.97;;;17.56;51.03